UDYZ

Yerevan/Zvartnots International Airport

Airport
ICAO code
UDYZ
IATA Code
EVN
Summary
ICAO Region
APAC
ICAO Territory
Location

Zvartnots,

Serving
Yerevan
Elevation
2838 ft
Coordinates
40° 8' 50" N , 44° 23' 45" E
KCC
BSk
Metar
Observation
UDYZ 171000Z 15005KT 100V180 9999 NSC 36/07 Q1008 R09/010070 NOSIG
Station
ZVARTNOTS
Date/Time
2022-08-17 10:00:00
Wind direction
150°
Wind speed
05 kts
Lowest cloud amount
nil significant cloud
Temperature
36°C
Dew point
7°C
Humidity
16%
QNH
1008 hPa
Weather condition
n/a

Description

Zvartnots International airport is located near Zvartnots, 10 km west of Yerevan, the capital city of Armenia.

Climatology

Cold Semi-arid climate (Köppen climate classification BSk). - Hot, sometimes extremely hot summers and cold, sometimes very cold winters. Some snowfall during the winter. Areas featuring cold semi-arid climates are sometimes subject to major temperature swings during a 24 hour period.

Runways

Designator Length Width Surface Rops
9/27 3849 56 ASP Yes/Yes

Airport map

Aerial View

SKYbrary Partners:

Safety knowledge contributed by: